Time;durP1;ratioP1;P1;durP2;ratioP2;P2;SDS_P1;SDS_P2;PMS_P1;PMS_P2;Temp;Humidity;BMP_temperature;BMP_pressure;BME280_temperature;BME280_humidity;BME280_pressure;Samples;Min_cycle;Max_cycle;Signal;HPM_P1;HPM_P2
2024/01/28 00:04:28;;;;;;;6.50;5.90;;;23.70;48.50;;;;;;221964;1258;22781;-52
2024/01/28 00:09:33;;;;;;;7.20;6.00;;;23.70;48.50;;;;;;221801;1265;22528;-54
2024/01/28 00:14:38;;;;;;;6.40;5.70;;;23.70;48.60;;;;;;221876;1257;23895;-50
2024/01/28 00:19:42;;;;;;;9.60;6.00;;;23.60;48.80;;;;;;222177;1259;22789;-53
2024/01/28 00:24:50;;;;;;;8.00;5.80;;;23.30;49.30;;;;;;222306;1269;24203;-51
2024/01/28 00:29:54;;;;;;;15.40;6.30;;;23.40;49.10;;;;;;221961;1247;24408;-53
2024/01/28 00:34:59;;;;;;;8.90;5.30;;;23.30;50.60;;;;;;222483;1262;24200;-55
2024/01/28 00:40:05;;;;;;;9.30;5.70;;;23.30;51.70;;;;;;222200;1261;24349;-53
2024/01/28 00:45:10;;;;;;;8.00;5.50;;;23.30;51.70;;;;;;222001;1259;22515;-55
2024/01/28 00:50:15;;;;;;;8.10;6.00;;;23.30;51.10;;;;;;222298;1265;23972;-59
2024/01/28 00:55:21;;;;;;;6.60;5.10;;;23.30;50.80;;;;;;222267;1266;24101;-54
2024/01/28 01:00:25;;;;;;;6.80;5.20;;;23.00;51.50;;;;;;221898;1266;22572;-55
2024/01/28 01:05:30;;;;;;;6.30;4.90;;;23.10;51.40;;;;;;222024;1263;26497;-53
2024/01/28 01:10:34;;;;;;;8.30;5.40;;;23.10;51.10;;;;;;221745;1266;24197;-56
2024/01/28 01:15:42;;;;;;;8.30;5.30;;;23.20;51.00;;;;;;221791;1270;24209;-55
2024/01/28 01:20:46;;;;;;;6.30;4.80;;;23.30;50.70;;;;;;221646;1262;25368;-54
2024/01/28 01:25:51;;;;;;;7.90;4.70;;;23.40;50.70;;;;;;222038;1262;22527;-54
2024/01/28 01:30:56;;;;;;;6.60;4.70;;;23.40;50.90;;;;;;221826;1267;24283;-55
2024/01/28 01:36:01;;;;;;;6.50;4.40;;;23.40;50.60;;;;;;222169;1269;22676;-56
2024/01/28 01:41:06;;;;;;;7.70;4.30;;;23.40;50.90;;;;;;222084;1262;25271;-53
2024/01/28 01:46:11;;;;;;;5.00;4.40;;;23.40;50.30;;;;;;221913;1261;24192;-55
2024/01/28 01:51:16;;;;;;;5.20;4.00;;;23.40;50.20;;;;;;222019;1265;22575;-55
2024/01/28 01:56:22;;;;;;;6.20;4.60;;;23.30;50.10;;;;;;220651;1276;24204;-57
2024/01/28 02:01:29;;;;;;;4.60;4.10;;;23.40;49.90;;;;;;221104;1276;24271;-57
2024/01/28 02:06:33;;;;;;;5.50;4.40;;;23.40;49.90;;;;;;220909;1273;25441;-55
2024/01/28 02:11:38;;;;;;;5.30;4.10;;;23.40;49.80;;;;;;220935;1268;22544;-54
2024/01/28 02:16:43;;;;;;;6.40;4.20;;;23.40;49.90;;;;;;221786;1265;22517;-56
2024/01/28 02:21:47;;;;;;;4.60;4.20;;;23.40;49.90;;;;;;222070;1263;22553;-55
2024/01/28 02:26:52;;;;;;;5.10;3.90;;;23.20;49.80;;;;;;222010;1270;22580;-54
2024/01/28 02:31:56;;;;;;;4.70;4.00;;;23.10;50.20;;;;;;222244;1266;22489;-52
2024/01/28 02:37:01;;;;;;;4.20;3.70;;;23.00;50.60;;;;;;222037;1263;25342;-53
2024/01/28 02:42:07;;;;;;;4.60;3.90;;;23.10;50.50;;;;;;221958;1269;22535;-54
2024/01/28 02:47:11;;;;;;;3.90;3.30;;;23.20;50.90;;;;;;224426;1263;25590;-52
2024/01/28 02:52:15;;;;;;;4.30;3.60;;;23.30;49.90;;;;;;224036;1266;22556;-54
2024/01/28 02:57:19;;;;;;;4.10;3.70;;;23.60;49.60;;;;;;221664;1266;22543;-55
2024/01/28 03:02:25;;;;;;;5.50;3.40;;;23.50;49.60;;;;;;221866;1258;22540;-55
2024/01/28 03:07:29;;;;;;;3.90;3.50;;;23.50;49.80;;;;;;221986;1261;25497;-55
2024/01/28 03:12:34;;;;;;;4.70;3.30;;;23.40;50.00;;;;;;221848;1262;24618;-55
2024/01/28 03:17:39;;;;;;;3.40;3.10;;;23.50;49.70;;;;;;221798;1267;25087;-54
2024/01/28 03:22:44;;;;;;;3.60;3.30;;;23.40;49.60;;;;;;221926;1262;25565;-54
2024/01/28 03:27:48;;;;;;;4.00;3.50;;;23.40;49.60;;;;;;222034;1269;25603;-55
2024/01/28 03:32:53;;;;;;;3.80;3.40;;;23.40;49.60;;;;;;222023;1247;24192;-54
2024/01/28 03:37:59;;;;;;;4.20;3.40;;;23.40;49.90;;;;;;221819;1261;22546;-55
2024/01/28 03:43:03;;;;;;;4.60;3.40;;;23.40;50.80;;;;;;221929;1262;22519;-54
2024/01/28 03:48:08;;;;;;;3.40;3.00;;;23.40;50.80;;;;;;221107;1261;23015;-52
2024/01/28 03:53:13;;;;;;;3.50;3.20;;;23.30;50.20;;;;;;221053;1274;24202;-55
2024/01/28 03:58:17;;;;;;;3.90;3.30;;;23.10;50.10;;;;;;220914;1275;24213;-55
2024/01/28 04:03:22;;;;;;;4.90;3.20;;;23.20;50.00;;;;;;221212;1270;24447;-55
2024/01/28 04:08:26;;;;;;;4.30;3.40;;;23.00;50.30;;;;;;222119;1265;24083;-56
2024/01/28 04:13:31;;;;;;;3.40;3.10;;;23.10;50.40;;;;;;222240;1266;22559;-58
2024/01/28 04:18:35;;;;;;;3.20;2.90;;;23.20;50.10;;;;;;222201;1268;25470;-54
2024/01/28 04:23:40;;;;;;;3.20;2.90;;;23.40;49.90;;;;;;222294;1262;23787;-56
2024/01/28 04:28:46;;;;;;;3.10;2.70;;;23.50;49.80;;;;;;221981;1266;26521;-53
2024/01/28 04:33:51;;;;;;;3.30;3.00;;;23.60;49.70;;;;;;222243;1263;26510;-55
2024/01/28 04:38:55;;;;;;;4.70;2.90;;;23.50;49.80;;;;;;221991;1267;24156;-55
2024/01/28 04:44:00;;;;;;;3.10;2.80;;;23.50;49.50;;;;;;222389;1263;22646;-54
2024/01/28 04:49:04;;;;;;;3.20;2.70;;;23.40;49.70;;;;;;222972;1263;22542;-55
2024/01/28 04:54:09;;;;;;;3.40;3.10;;;23.50;49.40;;;;;;222005;1266;23799;-54
2024/01/28 04:59:14;;;;;;;3.30;3.00;;;23.50;49.30;;;;;;222460;1253;22663;-57
2024/01/28 05:04:18;;;;;;;4.40;2.50;;;23.40;49.60;;;;;;222064;1263;22562;-57
2024/01/28 05:09:24;;;;;;;2.60;2.40;;;23.40;49.50;;;;;;222128;1263;24108;-55
2024/01/28 05:14:29;;;;;;;3.90;2.50;;;23.50;49.80;;;;;;221358;1265;22582;-55
2024/01/28 05:19:33;;;;;;;3.10;2.70;;;23.30;50.20;;;;;;221340;1270;24127;-54
2024/01/28 05:24:38;;;;;;;3.00;2.20;;;23.20;50.70;;;;;;221267;1268;376023;-54
2024/01/28 05:29:42;;;;;;;3.70;2.30;;;23.10;50.60;;;;;;221536;1267;22627;-56
2024/01/28 05:34:46;;;;;;;2.80;2.40;;;23.10;50.40;;;;;;221494;1271;24787;-57
2024/01/28 05:39:51;;;;;;;3.50;2.70;;;23.00;50.50;;;;;;221526;1268;22797;-56
2024/01/28 05:44:56;;;;;;;4.80;2.50;;;22.90;50.30;;;;;;221414;1265;25607;-56
2024/01/28 05:50:00;;;;;;;2.50;2.20;;;22.90;50.60;;;;;;221304;1264;24225;-53
2024/01/28 05:55:05;;;;;;;4.10;2.90;;;22.80;50.70;;;;;;221475;1256;25380;-56
2024/01/28 06:00:11;;;;;;;3.50;2.50;;;22.80;50.90;;;;;;221424;1268;24249;-54
2024/01/28 06:05:16;;;;;;;4.30;2.70;;;22.80;50.70;;;;;;221598;1264;24209;-54
2024/01/28 06:10:20;;;;;;;3.40;2.00;;;23.00;50.40;;;;;;221631;1254;23901;-56
2024/01/28 06:15:24;;;;;;;3.40;2.50;;;23.00;50.40;;;;;;221972;1259;22555;-56
2024/01/28 06:20:31;;;;;;;2.80;2.40;;;23.10;50.40;;;;;;222024;1265;24747;-55
2024/01/28 06:25:35;;;;;;;3.60;2.50;;;23.30;50.20;;;;;;222035;1265;22573;-53
2024/01/28 06:30:40;;;;;;;2.30;1.90;;;23.30;50.60;;;;;;222002;1256;25425;-54
2024/01/28 06:35:44;;;;;;;3.30;2.60;;;23.30;50.00;;;;;;222139;1267;25459;-54
2024/01/28 06:40:49;;;;;;;3.00;2.30;;;23.30;49.60;;;;;;222149;1262;25455;-55
2024/01/28 06:45:53;;;;;;;3.20;2.20;;;23.30;49.30;;;;;;222105;1262;25486;-55
2024/01/28 06:50:58;;;;;;;2.20;2.00;;;23.40;49.10;;;;;;222015;1262;24173;-55
2024/01/28 06:56:03;;;;;;;3.20;2.10;;;23.50;49.20;;;;;;222096;1263;23133;-55
2024/01/28 07:01:10;;;;;;;2.10;1.90;;;23.50;50.00;;;;;;222104;1262;22520;-56
2024/01/28 07:06:15;;;;;;;3.10;2.20;;;23.30;50.20;;;;;;222109;1269;22524;-55
2024/01/28 07:11:21;;;;;;;2.60;2.20;;;23.30;50.60;;;;;;222250;1249;23906;-55
2024/01/28 07:16:25;;;;;;;4.70;2.20;;;23.10;50.00;;;;;;221884;1249;22532;-55
2024/01/28 07:21:30;;;;;;;2.60;1.70;;;23.00;50.40;;;;;;221971;1268;25322;-54
2024/01/28 07:26:35;;;;;;;5.30;1.80;;;23.00;50.50;;;;;;222441;1263;24156;-56
2024/01/28 07:31:40;;;;;;;3.60;2.10;;;22.80;50.80;;;;;;222192;1268;25886;-55
2024/01/28 07:36:45;;;;;;;2.10;1.90;;;22.80;50.70;;;;;;222141;1266;22523;-55
2024/01/28 07:41:49;;;;;;;2.80;1.90;;;22.80;50.60;;;;;;222152;1268;24186;-53
2024/01/28 07:46:55;;;;;;;2.20;2.00;;;22.80;50.60;;;;;;221959;1269;22911;-55
2024/01/28 07:52:00;;;;;;;2.30;2.10;;;22.70;50.80;;;;;;222147;1267;24198;-55
2024/01/28 07:57:05;;;;;;;2.20;2.00;;;23.00;50.20;;;;;;222001;1256;22624;-55
2024/01/28 08:02:10;;;;;;;2.10;1.80;;;23.00;50.60;;;;;;221970;1259;22520;-56
2024/01/28 08:07:15;;;;;;;2.70;1.90;;;23.00;50.40;;;;;;221804;1258;24269;-55
2024/01/28 08:12:20;;;;;;;2.40;1.70;;;23.10;49.80;;;;;;221964;1264;25328;-55
2024/01/28 08:17:28;;;;;;;2.10;2.00;;;23.20;49.70;;;;;;221861;1263;22623;-58
2024/01/28 08:22:32;;;;;;;2.40;1.70;;;23.20;50.20;;;;;;222031;1263;22848;-56
2024/01/28 08:27:37;;;;;;;2.50;1.90;;;23.20;49.90;;;;;;222101;1266;22793;-54
2024/01/28 08:32:42;;;;;;;3.20;1.90;;;23.10;50.00;;;;;;222057;1270;23148;-55
2024/01/28 08:37:47;;;;;;;4.80;2.00;;;23.10;50.50;;;;;;221800;1264;24291;-57
2024/01/28 08:42:53;;;;;;;2.00;1.90;;;23.00;50.30;;;;;;221884;1267;22528;-56
2024/01/28 08:47:58;;;;;;;3.50;2.00;;;23.00;50.20;;;;;;221928;1265;23898;-55
2024/01/28 08:53:03;;;;;;;3.20;2.00;;;22.90;49.60;;;;;;221975;1269;24329;-56
2024/01/28 08:58:07;;;;;;;2.60;1.90;;;22.90;49.00;;;;;;222155;1269;25234;-55
2024/01/28 09:03:12;;;;;;;2.20;1.90;;;22.80;49.10;;;;;;221757;1269;24202;-56
2024/01/28 09:08:17;;;;;;;4.80;2.10;;;22.80;49.80;;;;;;222109;1263;22553;-57
2024/01/28 09:13:22;;;;;;;4.30;2.50;;;22.90;50.10;;;;;;221833;1254;25255;-56
2024/01/28 09:18:27;;;;;;;4.00;2.50;;;23.00;49.90;;;;;;222094;1267;25459;-56
2024/01/28 09:23:33;;;;;;;3.20;2.60;;;23.00;50.00;;;;;;222136;1260;23944;-55
2024/01/28 09:28:37;;;;;;;4.60;2.20;;;23.00;50.30;;;;;;221935;1260;22554;-55
2024/01/28 09:33:43;;;;;;;3.50;2.30;;;22.90;51.00;;;;;;221805;1263;24648;-56
2024/01/28 09:38:47;;;;;;;5.10;2.60;;;22.80;51.30;;;;;;221735;1269;22548;-57
2024/01/28 09:43:52;;;;;;;3.80;2.20;;;22.90;51.50;;;;;;221843;1268;22531;-56
2024/01/28 09:48:59;;;;;;;3.10;2.60;;;22.90;51.70;;;;;;222106;1268;23215;-55
2024/01/28 09:54:05;;;;;;;4.60;2.60;;;22.90;51.20;;;;;;222135;1267;22526;-54
2024/01/28 09:59:12;;;;;;;3.90;2.30;;;23.00;51.30;;;;;;221987;1269;24211;-51
2024/01/28 10:04:18;;;;;;;6.10;2.00;;;23.10;51.30;;;;;;221841;1260;24349;-51
2024/01/28 10:09:26;;;;;;;4.70;2.50;;;23.10;50.80;;;;;;221096;1261;22534;-49
2024/01/28 10:14:31;;;;;;;5.00;2.50;;;23.20;50.60;;;;;;224636;1260;24096;-52
2024/01/28 10:19:39;;;;;;;7.10;2.50;;;23.50;51.00;;;;;;227220;1269;24199;-52
2024/01/28 10:24:45;;;;;;;10.20;3.30;;;23.50;50.00;;;;;;221142;1270;24209;-49
2024/01/28 10:29:50;;;;;;;7.80;2.30;;;23.70;49.60;;;;;;221932;1267;24191;-51
2024/01/28 10:34:55;;;;;;;5.60;2.70;;;23.50;49.50;;;;;;221869;1263;22526;-56
2024/01/28 10:40:08;;;;;;;2.60;2.20;;;23.60;49.40;;;;;;221859;1259;22784;-56
2024/01/28 10:45:16;;;;;;;8.70;3.00;;;23.50;49.30;;;;;;221676;1266;23657;-56
2024/01/28 10:50:24;;;;;;;6.20;2.30;;;23.70;49.00;;;;;;221861;1256;22762;-55
2024/01/28 10:55:32;;;;;;;6.70;2.80;;;23.80;48.90;;;;;;221839;1270;22616;-54
2024/01/28 11:00:36;;;;;;;9.30;2.70;;;23.90;48.90;;;;;;221978;1255;22558;-55
2024/01/28 11:05:41;;;;;;;9.40;2.70;;;23.90;48.70;;;;;;222015;1267;24200;-55
2024/01/28 11:10:47;;;;;;;5.10;2.30;;;24.00;48.70;;;;;;221903;1261;22537;-55
2024/01/28 11:15:54;;;;;;;7.20;2.60;;;23.80;49.00;;;;;;221937;1266;25790;-54
2024/01/28 11:21:10;;;;;;;8.40;2.40;;;23.90;49.00;;;;;;221969;1269;24352;-53
2024/01/28 11:26:17;;;;;;;5.20;2.50;;;24.10;48.70;;;;;;222168;1263;22565;-52
2024/01/28 11:31:33;;;;;;;5.20;2.50;;;24.10;48.40;;;;;;222133;1269;25236;-50
2024/01/28 11:36:44;;;;;;;5.10;3.60;;;23.90;48.70;;;;;;221948;1269;22601;-53
2024/01/28 11:41:52;;;;;;;7.80;2.50;;;23.90;48.70;;;;;;221933;1267;22533;-57
2024/01/28 11:46:58;;;;;;;7.00;2.60;;;24.00;49.50;;;;;;222088;1270;25347;-58
2024/01/28 11:52:05;;;;;;;9.70;2.50;;;24.10;49.20;;;;;;222273;1269;25236;-59
2024/01/28 11:57:10;;;;;;;4.30;2.70;;;24.30;49.90;;;;;;222030;1266;25221;-59
2024/01/28 12:02:18;;;;;;;5.70;3.50;;;24.20;48.30;;;;;;222325;1256;24286;-59
2024/01/28 12:07:23;;;;;;;6.50;2.60;;;24.10;48.80;;;;;;222002;1257;22522;-57
2024/01/28 12:12:28;;;;;;;9.60;2.80;;;24.30;49.50;;;;;;221919;1266;22795;-56
2024/01/28 12:17:39;;;;;;;5.30;2.60;;;24.30;48.60;;;;;;222202;1262;24230;-51
2024/01/28 12:22:44;;;;;;;;;;;24.40;49.10;;;;;;221923;1270;25506;-55
2024/01/28 12:27:51;;;;;;;8.80;2.80;;;24.40;48.10;;;;;;221908;1269;22783;-57
2024/01/28 12:32:55;;;;;;;8.30;2.80;;;24.10;48.10;;;;;;221883;1267;22595;-58
2024/01/28 12:38:00;;;;;;;5.70;2.70;;;23.90;47.70;;;;;;221607;1264;22785;-56
2024/01/28 12:43:04;;;;;;;6.90;2.80;;;23.80;47.90;;;;;;221987;1267;25607;-52
2024/01/28 12:48:09;;;;;;;10.30;3.00;;;23.70;48.30;;;;;;222226;1254;24199;-55
2024/01/28 12:53:14;;;;;;;5.10;2.80;;;23.80;48.70;;;;;;221683;1257;22527;-54
2024/01/28 12:58:19;;;;;;;4.90;2.40;;;23.90;48.80;;;;;;222067;1257;24270;-52
2024/01/28 13:03:23;;;;;;;4.50;2.40;;;24.00;48.90;;;;;;222016;1268;24197;-56
2024/01/28 13:08:28;;;;;;;8.50;2.60;;;24.00;48.90;;;;;;222108;1267;22564;-53
2024/01/28 13:13:34;;;;;;;7.40;3.40;;;23.90;49.30;;;;;;221762;1269;25324;-52
2024/01/28 13:18:40;;;;;;;9.80;4.20;;;24.00;49.30;;;;;;221694;1269;25319;-51
2024/01/28 13:23:45;;;;;;;9.00;3.70;;;24.00;49.20;;;;;;221820;1269;26752;-55
2024/01/28 13:28:49;;;;;;;6.60;4.10;;;24.10;49.80;;;;;;222113;1270;24280;-56
2024/01/28 13:33:54;;;;;;;8.50;3.70;;;24.00;48.90;;;;;;221803;1267;25479;-53
2024/01/28 13:38:58;;;;;;;7.80;3.40;;;24.00;48.60;;;;;;222217;1264;24194;-55
2024/01/28 13:44:05;;;;;;;6.90;3.90;;;24.00;48.60;;;;;;221774;1264;22524;-56
2024/01/28 13:49:10;;;;;;;7.60;3.40;;;23.70;49.10;;;;;;221882;1269;22480;-53
2024/01/28 13:54:15;;;;;;;8.80;3.20;;;23.70;48.90;;;;;;221838;1262;24199;-52
2024/01/28 13:59:19;;;;;;;5.40;3.50;;;23.70;48.90;;;;;;221974;1267;22995;-50
2024/01/28 14:04:24;;;;;;;7.70;3.80;;;23.70;49.00;;;;;;221888;1264;22592;-50
2024/01/28 14:09:29;;;;;;;9.10;3.20;;;23.60;49.40;;;;;;221837;1267;25291;-51
2024/01/28 14:14:34;;;;;;;6.70;3.00;;;23.70;49.20;;;;;;221721;1267;25558;-52
2024/01/28 14:19:40;;;;;;;8.90;3.20;;;23.50;49.40;;;;;;222125;1270;24188;-52
2024/01/28 14:24:45;;;;;;;6.70;3.30;;;23.50;49.30;;;;;;222262;1264;22548;-51
2024/01/28 14:29:50;;;;;;;12.40;3.40;;;23.50;49.50;;;;;;222239;1264;22545;-49
2024/01/28 14:34:55;;;;;;;10.00;3.80;;;23.50;50.30;;;;;;222273;1264;22533;-51
2024/01/28 14:40:00;;;;;;;6.00;3.30;;;23.40;50.10;;;;;;222069;1264;22539;-49
2024/01/28 14:45:06;;;;;;;8.40;3.20;;;23.40;50.00;;;;;;221900;1263;23408;-51
2024/01/28 14:50:11;;;;;;;7.20;3.20;;;23.30;49.80;;;;;;222026;1253;22546;-52
2024/01/28 14:55:16;;;;;;;6.70;3.60;;;23.30;50.10;;;;;;222032;1267;23624;-53
2024/01/28 15:00:20;;;;;;;9.00;3.50;;;23.30;50.30;;;;;;222063;1253;24047;-48
2024/01/28 15:05:25;;;;;;;6.60;3.40;;;23.20;50.20;;;;;;221904;1264;22585;-54
2024/01/28 15:10:30;;;;;;;5.60;3.20;;;23.20;50.30;;;;;;221618;1257;22549;-52
2024/01/28 15:15:35;;;;;;;11.60;3.40;;;23.20;50.50;;;;;;222071;1267;24013;-50
2024/01/28 15:20:40;;;;;;;8.30;3.10;;;23.20;50.70;;;;;;222125;1270;22635;-54
2024/01/28 15:25:45;;;;;;;6.20;3.40;;;23.10;50.90;;;;;;222112;1257;22530;-52
2024/01/28 15:30:49;;;;;;;10.50;3.20;;;23.10;50.50;;;;;;222046;1267;23974;-52
2024/01/28 15:35:55;;;;;;;6.00;3.30;;;23.00;51.10;;;;;;221932;1262;22525;-53
2024/01/28 15:40:59;;;;;;;14.30;3.40;;;23.00;51.10;;;;;;221981;1267;22537;-55
2024/01/28 15:46:07;;;;;;;3.70;2.80;;;23.00;51.30;;;;;;221944;1255;22540;-50
2024/01/28 15:51:12;;;;;;;8.90;3.60;;;22.90;51.30;;;;;;222162;1268;24233;-53
2024/01/28 15:56:17;;;;;;;8.70;3.40;;;22.90;51.40;;;;;;222662;1264;24202;-54
2024/01/28 16:01:24;;;;;;;8.10;3.20;;;22.90;51.30;;;;;;222130;1257;22523;-52
2024/01/28 16:06:32;;;;;;;6.30;3.50;;;22.90;51.80;;;;;;222223;1270;24228;-52
2024/01/28 16:11:36;;;;;;;8.10;3.20;;;22.90;52.00;;;;;;221965;1264;22530;-52
2024/01/28 16:16:41;;;;;;;6.10;3.50;;;23.10;51.90;;;;;;222227;1269;24199;-52
2024/01/28 16:21:46;;;;;;;6.00;3.70;;;23.10;51.70;;;;;;221983;1267;24210;-52
2024/01/28 16:26:51;;;;;;;8.80;3.70;;;23.10;51.50;;;;;;222017;1270;22540;-49
2024/01/28 16:31:56;;;;;;;17.10;4.60;;;23.10;52.10;;;;;;222247;1267;25872;-51
2024/01/28 16:37:02;;;;;;;10.40;4.80;;;23.00;52.10;;;;;;221926;1265;22522;-52
2024/01/28 16:42:06;;;;;;;8.30;5.00;;;23.10;52.90;;;;;;221786;1263;24199;-52
2024/01/28 16:47:13;;;;;;;13.40;5.70;;;23.30;53.10;;;;;;221789;1264;24228;-51
2024/01/28 16:52:17;;;;;;;13.90;5.70;;;23.30;52.80;;;;;;222032;1267;24197;-53
2024/01/28 16:57:25;;;;;;;8.70;5.50;;;23.20;52.20;;;;;;221913;1253;24210;-53
2024/01/28 17:02:31;;;;;;;12.60;5.70;;;23.30;52.60;;;;;;221949;1267;22546;-50
2024/01/28 17:07:36;;;;;;;13.00;6.30;;;23.30;52.20;;;;;;222020;1263;22619;-52
2024/01/28 17:12:40;;;;;;;6.60;5.40;;;23.20;52.00;;;;;;221984;1264;22573;-51
2024/01/28 17:17:45;;;;;;;15.30;6.40;;;23.30;51.60;;;;;;222008;1261;22559;-51
2024/01/28 17:22:51;;;;;;;9.30;6.00;;;23.10;51.70;;;;;;221960;1264;22602;-48
2024/01/28 17:27:56;;;;;;;12.60;7.00;;;23.10;51.60;;;;;;221644;1267;425312;-49
2024/01/28 17:33:04;;;;;;;16.30;7.60;;;23.10;51.70;;;;;;221980;1250;23925;-50
2024/01/28 17:38:10;;;;;;;11.50;7.00;;;23.10;51.40;;;;;;221884;1257;25562;-52
2024/01/28 17:43:15;;;;;;;15.50;7.00;;;23.00;51.20;;;;;;222251;1262;22573;-51
2024/01/28 17:48:20;;;;;;;14.70;7.80;;;23.00;51.30;;;;;;221865;1262;22720;-50
2024/01/28 17:53:25;;;;;;;16.60;8.80;;;22.90;51.00;;;;;;221953;1263;22532;-52
2024/01/28 17:58:30;;;;;;;15.90;9.50;;;22.90;50.60;;;;;;221900;1266;22649;-50
2024/01/28 18:03:37;;;;;;;22.50;10.20;;;22.80;50.90;;;;;;222003;1269;24331;-52
2024/01/28 18:08:42;;;;;;;21.70;11.10;;;22.80;51.50;;;;;;221716;1262;24269;-52
2024/01/28 18:13:47;;;;;;;18.60;9.80;;;22.80;52.80;;;;;;221890;1263;24231;-51
2024/01/28 18:18:52;;;;;;;15.60;9.60;;;23.00;53.30;;;;;;221637;1267;25359;-54
2024/01/28 18:23:57;;;;;;;18.50;9.40;;;23.00;52.50;;;;;;221658;1262;22666;-52
2024/01/28 18:29:02;;;;;;;17.40;9.60;;;22.90;52.00;;;;;;221661;1268;25236;-52
2024/01/28 18:34:08;;;;;;;18.80;10.10;;;22.90;51.90;;;;;;221692;1255;22602;-55
2024/01/28 18:39:13;;;;;;;21.20;10.70;;;23.00;52.10;;;;;;221621;1260;22531;-54
2024/01/28 18:44:21;;;;;;;21.90;9.80;;;23.30;51.60;;;;;;221783;1267;22623;-51
2024/01/28 18:49:25;;;;;;;16.50;9.40;;;23.40;51.60;;;;;;221837;1262;25075;-53
2024/01/28 18:54:30;;;;;;;18.00;9.20;;;23.30;52.10;;;;;;222720;1262;24736;-49
2024/01/28 18:59:35;;;;;;;15.30;8.80;;;23.30;52.20;;;;;;222065;1264;22556;-50
2024/01/28 19:04:41;;;;;;;15.40;8.40;;;23.20;51.90;;;;;;221575;1269;24183;-47
2024/01/28 19:09:47;;;;;;;19.70;9.40;;;23.10;52.40;;;;;;221920;1258;22751;-49
2024/01/28 19:14:52;;;;;;;14.50;8.70;;;23.00;51.70;;;;;;221259;1264;24256;-47
2024/01/28 19:19:56;;;;;;;14.30;9.10;;;22.90;52.60;;;;;;221321;1251;25417;-51
2024/01/28 19:25:04;;;;;;;14.30;8.40;;;22.80;53.20;;;;;;221381;1258;26535;-48
2024/01/28 19:30:11;;;;;;;15.90;8.40;;;22.80;54.10;;;;;;221663;1264;24258;-51
2024/01/28 19:35:16;;;;;;;13.10;8.30;;;22.80;55.50;;;;;;221482;1264;24292;-51
2024/01/28 19:40:21;;;;;;;16.10;9.10;;;22.80;54.60;;;;;;221622;1262;24326;-47
2024/01/28 19:45:26;;;;;;;13.10;8.00;;;22.70;54.60;;;;;;221733;1265;22531;-48
2024/01/28 19:50:31;;;;;;;16.10;8.70;;;22.70;53.90;;;;;;222046;1264;22748;-47
2024/01/28 19:55:37;;;;;;;16.20;9.10;;;22.70;55.10;;;;;;221896;1264;22610;-49
2024/01/28 20:00:42;;;;;;;15.80;8.50;;;22.70;54.80;;;;;;221615;1262;25367;-50
2024/01/28 20:05:47;;;;;;;20.70;9.40;;;22.70;55.40;;;;;;221819;1255;22708;-48
2024/01/28 20:10:52;;;;;;;20.50;9.90;;;22.70;56.50;;;;;;221759;1268;24175;-51
2024/01/28 20:15:56;;;;;;;18.10;8.70;;;22.70;56.30;;;;;;222173;1248;25292;-47
2024/01/28 20:21:03;;;;;;;16.50;8.90;;;22.80;55.10;;;;;;222009;1256;22534;-53
2024/01/28 20:26:07;;;;;;;16.60;8.20;;;23.20;56.10;;;;;;221970;1269;24241;-50
2024/01/28 20:31:17;;;;;;;14.50;8.10;;;23.10;55.30;;;;;;222238;1269;24268;-53
2024/01/28 20:36:22;;;;;;;18.80;8.50;;;23.30;54.70;;;;;;222029;1264;24032;-51
2024/01/28 20:41:28;;;;;;;32.60;9.60;;;23.10;54.60;;;;;;221848;1251;22527;-52
2024/01/28 20:46:33;;;;;;;19.10;9.50;;;23.20;60.20;;;;;;221797;1255;22517;-53
2024/01/28 20:51:38;;;;;;;24.80;8.70;;;23.20;58.40;;;;;;221950;1265;22484;-50
2024/01/28 20:56:42;;;;;;;19.60;9.10;;;23.00;57.80;;;;;;221960;1254;24233;-53
2024/01/28 21:01:47;;;;;;;20.20;8.00;;;23.30;58.40;;;;;;221820;1261;25288;-51
2024/01/28 21:06:52;;;;;;;16.60;8.20;;;23.20;57.90;;;;;;221944;1265;24291;-53
2024/01/28 21:11:57;;;;;;;20.80;7.90;;;23.10;57.90;;;;;;222232;1267;23007;-48
2024/01/28 21:17:02;;;;;;;18.40;8.40;;;23.10;57.70;;;;;;222065;1263;22530;-51
2024/01/28 21:22:06;;;;;;;13.20;7.90;;;23.00;58.10;;;;;;221997;1263;23842;-52
2024/01/28 21:27:11;;;;;;;12.20;7.80;;;22.80;57.70;;;;;;221941;1262;24395;-51
2024/01/28 21:32:16;;;;;;;13.40;7.30;;;22.70;57.60;;;;;;221882;1262;25252;-53
2024/01/28 21:37:21;;;;;;;11.20;8.10;;;22.70;58.00;;;;;;222101;1262;22626;-54
2024/01/28 21:42:26;;;;;;;13.00;7.10;;;22.60;57.50;;;;;;222020;1262;24288;-52
2024/01/28 21:47:33;;;;;;;13.50;8.20;;;22.60;57.30;;;;;;222063;1263;25486;-53
2024/01/28 21:52:37;;;;;;;12.40;7.50;;;22.70;57.10;;;;;;221920;1262;23741;-53
2024/01/28 21:57:44;;;;;;;14.50;7.70;;;22.80;57.00;;;;;;221860;1256;24199;-52
2024/01/28 22:02:51;;;;;;;11.80;7.20;;;23.00;56.60;;;;;;222095;1256;22573;-51
2024/01/28 22:07:57;;;;;;;11.40;8.20;;;23.10;56.50;;;;;;222157;1262;22612;-49
2024/01/28 22:13:02;;;;;;;13.70;7.40;;;23.30;56.20;;;;;;221712;1262;22639;-51
2024/01/28 22:18:07;;;;;;;12.50;7.10;;;23.30;55.90;;;;;;221917;1263;24304;-52
2024/01/28 22:23:11;;;;;;;14.10;8.10;;;23.30;55.60;;;;;;221731;1268;22520;-52
2024/01/28 22:28:18;;;;;;;14.60;7.80;;;23.10;55.70;;;;;;221827;1265;25578;-50
2024/01/28 22:33:23;;;;;;;12.20;7.60;;;23.10;56.10;;;;;;222300;1262;22519;-49
2024/01/28 22:38:28;;;;;;;10.80;6.70;;;23.20;55.70;;;;;;221988;1249;25272;-53
2024/01/28 22:43:33;;;;;;;9.10;6.00;;;23.10;55.30;;;;;;221681;1253;24206;-53
2024/01/28 22:48:37;;;;;;;10.60;7.30;;;23.20;54.80;;;;;;221749;1262;24756;-52
2024/01/28 22:53:42;;;;;;;14.30;7.90;;;23.10;54.70;;;;;;222053;1265;24177;-53
2024/01/28 22:58:49;;;;;;;11.40;6.70;;;23.00;54.70;;;;;;221681;1256;24189;-50
2024/01/28 23:03:53;;;;;;;9.90;6.50;;;22.90;55.00;;;;;;221878;1254;22767;-54
2024/01/28 23:08:58;;;;;;;8.80;6.50;;;22.80;54.90;;;;;;222333;1268;22587;-52
2024/01/28 23:14:03;;;;;;;11.10;6.80;;;22.70;55.20;;;;;;221793;1267;24757;-51
2024/01/28 23:19:07;;;;;;;10.10;6.80;;;22.70;54.80;;;;;;221921;1266;22522;-49
2024/01/28 23:24:12;;;;;;;12.30;6.80;;;22.90;54.40;;;;;;222056;1269;24264;-52
2024/01/28 23:29:18;;;;;;;11.20;6.80;;;23.00;54.10;;;;;;222178;1256;23144;-53
2024/01/28 23:34:22;;;;;;;9.10;7.00;;;23.10;53.80;;;;;;222209;1262;25381;-48
2024/01/28 23:39:26;;;;;;;9.60;7.10;;;23.20;54.00;;;;;;221677;1266;24200;-53
2024/01/28 23:44:31;;;;;;;8.30;6.20;;;23.40;53.10;;;;;;222070;1262;22519;-49
2024/01/28 23:49:35;;;;;;;7.40;6.20;;;23.40;53.20;;;;;;222324;1265;22654;-54
2024/01/28 23:54:41;;;;;;;9.60;6.60;;;23.40;53.00;;;;;;222298;1270;22635;-52
2024/01/28 23:59:47;;;;;;;10.40;6.80;;;23.50;52.70;;;;;;228150;1262;26691;-52
